No particular awareness of the weather is required.    There are no Weather-warnings


Meteo18 Weather Cam more information Meteo18 Weather Cam


Thunder radar more information blitzortung!


Rain radar more information rain snow radar


Visit our other weather sites:

Template documentation
and downloads

And another site



Weather Underground History page Text

Daily Summary for February 7, 2018 Units:  English    Metric   Both
« Previous Day
Next Day »
Daily Weekly Monthly Yearly Custom
  High: Low: Average:
Temperature: TemperatureC °F -2.3 °F -1.2 °F
Dew Point: DewpointC °F -3.3 °F -2 °F
Humidity: Humidity % 89 % 94 %
Wind Speed: WindSpeedKMH mph 0.0 mph 1.1 mph
Wind Gust: WindSpeedGustKMH mph - -
Wind:- - SSE
Pressure: PressurehPa in 1011.4 in -
Precipitation: 0.0 in    
Historical Graphs
 
 
Tabular Data for February 7, 2018
Time Temperature Dew Point Pressure Wind Wind Speed Wind Gust Humidity Rainfall Rate (Hourly)
TemperatureC °F DewpointC °F PressurehPa in Calm     Humidity % HourlyPrecipMM in
00:04 -1.3 °F -2.3 °F 1011.4 in SW 3.2 mph 4.8 mph 93 % 0.0 in
00:08 -1.3 °F -2.3 °F 1011.4 in WSW 3.2 mph 4.8 mph 93 % 0.0 in
00:14 -1.4 °F -2.5 °F 1011.4 in WSW 1.4 mph 3.2 mph 92 % 0.0 in
00:20 -1.4 °F -2.4 °F 1011.4 in WSW 3.2 mph 6.4 mph 93 % 0.0 in
00:26 -1.4 °F -2.4 °F 1011.4 in WSW 4.7 mph 8.0 mph 93 % 0.0 in
00:32 -1.4 °F -2.4 °F 1011.4 in SW 3.2 mph 11.3 mph 93 % 0.0 in
00:38 -1.4 °F -2.4 °F 1011.4 in SW 1.4 mph 4.8 mph 93 % 0.0 in
00:44 -1.6 °F -2.6 °F 1011.7 in Calm   3.2 mph 93 % 0.0 in
00:50 -2.1 °F -3.2 °F 1011.7 in Calm   1.6 mph 92 % 0.0 in
00:56 -2.3 °F -3.3 °F 1011.7 in SSW 3.2 mph 4.8 mph 93 % 0.0 in
01:02 -2.3 °F -3.1 °F 1011.4 in SSW 3.2 mph 4.8 mph 94 % 0.0 in
01:08 -2.2 °F -2.9 °F 1011.4 in WSW 6.4 mph 6.4 mph 95 % 0.0 in
01:14 -2.0 °F -2.7 °F 1011.7 in West 1.4 mph 8.0 mph 95 % 0.0 in
01:20 -1.9 °F -2.6 °F 1011.7 in SW 1.4 mph 3.2 mph 95 % 0.0 in
01:26 -1.8 °F -2.5 °F 1011.7 in SW 3.2 mph 6.4 mph 95 % 0.0 in
01:32 -1.8 °F -2.5 °F 1011.7 in SSW 4.7 mph 4.8 mph 95 % 0.0 in
01:38 -2.0 °F -2.8 °F 1011.7 in SW 6.4 mph 6.4 mph 94 % 0.0 in
01:44 -2.1 °F -2.8 °F 1011.7 in SSW 3.2 mph 4.8 mph 95 % 0.0 in
01:50 -2.1 °F -2.8 °F 1011.7 in SSW 3.2 mph 4.8 mph 95 % 0.0 in
01:56 -2.0 °F -2.7 °F 1011.7 in SSW 1.4 mph 3.2 mph 95 % 0.0 in
02:02 -1.9 °F -2.6 °F 1011.7 in SSW 3.2 mph 3.2 mph 95 % 0.0 in
02:09 -1.9 °F -2.5 °F 1011.4 in SSW 3.2 mph 4.8 mph 96 % 0.0 in
02:15 -1.8 °F -2.4 °F 1011.4 in WSW 4.7 mph 8.0 mph 96 % 0.0 in
02:21 -1.7 °F -2.3 °F 1011.4 in WSW 3.2 mph 4.8 mph 96 % 0.0 in
02:27 -1.6 °F -2.2 °F 1011.4 in SW 4.7 mph 6.4 mph 96 % 0.0 in
02:33 -1.6 °F -2.3 °F 1011.7 in WSW 1.4 mph 4.8 mph 95 % 0.0 in
02:39 -1.5 °F -2.2 °F 1011.4 in SW 4.7 mph 8.0 mph 95 % 0.0 in
02:45 -1.4 °F -2.1 °F 1011.7 in WSW 3.2 mph 4.8 mph 95 % 0.0 in
02:51 -1.4 °F -2.1 °F 1011.7 in SW 6.4 mph 6.4 mph 95 % 0.0 in
02:57 -1.3 °F -2.0 °F 1011.7 in SW 4.7 mph 6.4 mph 95 % 0.0 in
03:03 -1.3 °F -2.0 °F 1011.4 in WSW 3.2 mph 6.4 mph 95 % 0.0 in
03:09 -1.3 °F -2.0 °F 1011.4 in WSW 3.2 mph 4.8 mph 95 % 0.0 in
03:15 -1.3 °F -2.0 °F 1011.4 in SW 3.2 mph 8.0 mph 95 % 0.0 in
03:21 -1.3 °F -2.0 °F 1011.4 in West 4.7 mph 9.7 mph 95 % 0.0 in
03:27 -1.3 °F -2.0 °F 1011.4 in SW 1.4 mph 3.2 mph 95 % 0.0 in
03:33 -1.3 °F -2.0 °F 1011.4 in Calm   4.8 mph 95 % 0.0 in
03:39 -1.3 °F -2.0 °F 1011.4 in West 3.2 mph 4.8 mph 95 % 0.0 in
03:45 -1.3 °F -2.0 °F 1011.4 in SW 3.2 mph 4.8 mph 95 % 0.0 in
03:51 -1.4 °F -2.1 °F 1011.4 in SW 3.2 mph 4.8 mph 95 % 0.0 in
03:57 -1.4 °F -2.1 °F 1011.4 in SW 1.4 mph 4.8 mph 95 % 0.0 in
04:03 -1.4 °F -2.1 °F 1011.4 in SW 3.2 mph 4.8 mph 95 % 0.0 in
04:09 -1.4 °F -2.1 °F 1011.4 in SW 3.2 mph 6.4 mph 95 % 0.0 in
04:15 -1.4 °F -2.1 °F 1011.4 in West 1.4 mph 3.2 mph 95 % 0.0 in
04:21 -1.4 °F -2.1 °F 1011.4 in SW 1.4 mph 4.8 mph 95 % 0.0 in
04:27 -1.4 °F -2.1 °F 1011.4 in Calm   4.8 mph 95 % 0.0 in
04:33 -1.5 °F -2.2 °F 1011.4 in WSW 9.7 mph 9.7 mph 95 % 0.0 in
04:39 -1.5 °F -2.3 °F 1011.4 in WSW 3.2 mph 6.4 mph 94 % 0.0 in
04:45 -1.6 °F -2.4 °F 1011.4 in West 1.4 mph 6.4 mph 94 % 0.0 in
04:51 -1.6 °F -2.4 °F 1011.4 in WSW 4.7 mph 4.8 mph 94 % 0.0 in
04:57 -1.6 °F -2.4 °F 1011.4 in West 1.4 mph 3.2 mph 94 % 0.0 in
05:03 -1.6 °F -2.4 °F 1011.4 in WSW 1.4 mph 3.2 mph 94 % 0.0 in
05:09 -1.6 °F -2.4 °F 1011.4 in Calm   3.2 mph 94 % 0.0 in
05:15 -1.6 °F -2.4 °F 1011.4 in WSW 3.2 mph 4.8 mph 94 % 0.0 in
05:21 -1.6 °F -2.4 °F 1011.7 in WSW 1.4 mph 3.2 mph 94 % 0.0 in
05:27 -1.7 °F -2.5 °F 1011.7 in WSW 1.4 mph 3.2 mph 94 % 0.0 in
05:33 -1.7 °F -2.5 °F 1011.7 in SW 1.4 mph 1.6 mph 94 % 0.0 in
05:39 -1.7 °F -2.4 °F 1011.7 in Calm   3.2 mph 95 % 0.0 in
05:45 -1.7 °F -2.4 °F 1011.7 in Calm   1.6 mph 95 % 0.0 in
05:51 -1.7 °F -2.4 °F 1011.7 in Calm   1.6 mph 95 % 0.0 in
05:57 -1.7 °F -2.4 °F 1011.7 in Calm   3.2 mph 95 % 0.0 in
06:03 -1.7 °F -2.4 °F 1011.7 in SW 1.4 mph 3.2 mph 95 % 0.0 in
06:09 -1.7 °F -2.4 °F 1011.7 in SW 3.2 mph 3.2 mph 95 % 0.0 in
06:15 -1.7 °F -2.4 °F 1011.7 in SSW 3.2 mph 3.2 mph 95 % 0.0 in
06:21 -1.7 °F -2.4 °F 1011.7 in Calm   1.6 mph 95 % 0.0 in
06:27 -1.8 °F -2.5 °F 1011.7 in SW 1.4 mph 1.6 mph 95 % 0.0 in
06:33 -1.8 °F -2.5 °F 1011.7 in Calm   1.6 mph 95 % 0.0 in
06:39 -1.8 °F -2.5 °F 1011.7 in Calm     95 % 0.0 in
06:45 -1.8 °F -2.5 °F 1011.7 in Calm     95 % 0.0 in
06:51 -1.9 °F -2.6 °F 1011.7 in Calm   1.6 mph 95 % 0.0 in
06:57 -1.9 °F -2.6 °F 1011.7 in Calm   1.6 mph 95 % 0.0 in
07:03 -1.9 °F -2.6 °F 1011.7 in SW 1.4 mph 1.6 mph 95 % 0.0 in
07:09 -1.9 °F -2.5 °F 1011.7 in Calm   1.6 mph 96 % 0.0 in
07:15 -1.8 °F -2.4 °F 1011.7 in Calm   1.6 mph 96 % 0.0 in
07:21 -1.8 °F -2.4 °F 1012.1 in Calm     96 % 0.0 in
07:27 -1.9 °F -2.5 °F 1012.1 in Calm     96 % 0.0 in
07:33 -1.9 °F -2.5 °F 1012.1 in Calm     96 % 0.0 in
07:40 -1.9 °F -2.5 °F 1012.1 in Calm     96 % 0.0 in
07:46 -1.9 °F -2.5 °F 1012.1 in Calm     96 % 0.0 in
07:52 -1.9 °F -2.5 °F 1012.1 in Calm     96 % 0.0 in
07:58 -1.9 °F -2.5 °F 1012.1 in Calm     96 % 0.0 in
08:04 -1.9 °F -2.5 °F 1012.4 in Calm     96 % 0.0 in
08:10 -1.9 °F -2.5 °F 1012.4 in Calm     96 % 0.0 in
08:16 -1.9 °F -2.5 °F 1012.4 in Calm     96 % 0.0 in
08:22 -1.9 °F -2.5 °F 1012.8 in Calm     96 % 0.0 in
08:28 -1.9 °F -2.5 °F 1012.4 in Calm     96 % 0.0 in
08:34 -1.8 °F -2.4 °F 1012.8 in Calm     96 % 0.0 in
08:40 -1.8 °F -2.4 °F 1012.8 in Calm     96 % 0.0 in
08:46 -1.8 °F -2.4 °F 1012.8 in Calm     96 % 0.0 in
08:52 -1.8 °F -2.4 °F 1012.8 in Calm     96 % 0.0 in
08:58 -1.8 °F -2.4 °F 1012.8 in Calm     96 % 0.0 in
09:04 -1.8 °F -2.4 °F 1012.8 in Calm     96 % 0.0 in
09:10 -1.8 °F -2.4 °F 1013.1 in Calm     96 % 0.0 in
09:16 -1.7 °F -2.3 °F 1013.1 in Calm     96 % 0.0 in
09:22 -1.8 °F -2.4 °F 1013.1 in Calm     96 % 0.0 in
09:28 -1.7 °F -2.3 °F 1013.4 in Calm     96 % 0.0 in
09:35 -1.7 °F -2.3 °F 1013.4 in Calm     96 % 0.0 in
09:41 -1.7 °F -2.3 °F 1013.4 in Calm     96 % 0.0 in
09:47 -1.7 °F -2.3 °F 1013.4 in Calm     96 % 0.0 in
09:53 -1.6 °F -2.2 °F 1013.4 in Calm     96 % 0.0 in
09:59 -1.6 °F -2.2 °F 1013.8 in Calm     96 % 0.0 in
10:05 -1.6 °F -2.3 °F 1013.8 in Calm     95 % 0.0 in
10:11 -1.5 °F -2.2 °F 1013.8 in Calm     95 % 0.0 in
10:17 -1.5 °F -2.2 °F 1013.8 in Calm     95 % 0.0 in
10:23 -1.4 °F -2.1 °F 1013.8 in Calm     95 % 0.0 in
10:29 -1.3 °F -2.0 °F 1014.1 in Calm     95 % 0.0 in
10:35 -1.3 °F -2.0 °F 1014.1 in Calm     95 % 0.0 in
10:41 -1.3 °F -2.0 °F 1014.1 in Calm     95 % 0.0 in
10:47 -1.2 °F -1.9 °F 1014.1 in Calm     95 % 0.0 in
10:53 -1.2 °F -1.9 °F 1014.1 in Calm     95 % 0.0 in
10:59 -1.1 °F -1.8 °F 1014.4 in Calm     95 % 0.0 in
11:05 -0.9 °F -1.6 °F 1014.4 in Calm     95 % 0.0 in
11:11 -0.9 °F -1.7 °F 1014.4 in Calm     94 % 0.0 in
11:17 -0.9 °F -1.7 °F 1014.4 in Calm     94 % 0.0 in
11:23 -0.9 °F -1.7 °F 1014.4 in Calm     94 % 0.0 in
11:29 -0.9 °F -1.7 °F 1014.4 in Calm     94 % 0.0 in
11:35 -1.0 °F -1.8 °F 1014.8 in Calm     94 % 0.0 in
11:42 -0.9 °F -1.7 °F 1014.8 in Calm     94 % 0.0 in
11:48 -0.8 °F -1.6 °F 1014.8 in Calm     94 % 0.0 in
11:54 -0.8 °F -1.6 °F 1014.8 in Calm     94 % 0.0 in
12:00 -0.8 °F -1.6 °F 1015.1 in Calm     94 % 0.0 in
12:06 -0.7 °F -1.5 °F 1015.1 in Calm     94 % 0.0 in
12:12 -0.7 °F -1.7 °F 1015.1 in Calm     93 % 0.0 in
12:18 -0.7 °F -1.7 °F 1015.1 in Calm     93 % 0.0 in
12:24 -0.6 °F -1.7 °F 1015.1 in Calm     92 % 0.0 in
12:30 -0.6 °F -1.7 °F 1015.1 in Calm     92 % 0.0 in
12:36 -0.7 °F -1.8 °F 1015.1 in Calm     92 % 0.0 in
12:42 -0.7 °F -1.8 °F 1015.1 in Calm     92 % 0.0 in
12:48 -0.7 °F -1.8 °F 1015.1 in Calm     92 % 0.0 in
12:54 -0.7 °F -1.8 °F 1015.1 in Calm     92 % 0.0 in
13:00 -0.7 °F -1.8 °F 1015.1 in Calm   1.6 mph 92 % 0.0 in
13:06 -0.7 °F -1.8 °F 1015.1 in Calm   1.6 mph 92 % 0.0 in
13:12 -0.7 °F -1.8 °F 1015.1 in WNW 1.4 mph 1.6 mph 92 % 0.0 in
13:18 -0.6 °F -1.7 °F 1015.1 in Calm   1.6 mph 92 % 0.0 in
13:24 -0.5 °F -1.6 °F 1015.1 in Calm     92 % 0.0 in
13:31 -0.4 °F -1.5 °F 1015.1 in WNW 1.4 mph 1.6 mph 92 % 0.0 in
13:37 -0.6 °F -1.9 °F 1015.1 in WNW 1.4 mph 1.6 mph 91 % 0.0 in
13:43 -0.5 °F -1.8 °F 1015.1 in Calm   1.6 mph 91 % 0.0 in
13:49 -0.4 °F -1.5 °F 1015.1 in Calm   3.2 mph 92 % 0.0 in
13:55 -0.4 °F -1.5 °F 1015.1 in Calm   1.6 mph 92 % 0.0 in
14:01 -0.3 °F -1.4 °F 1015.5 in Calm   1.6 mph 92 % 0.0 in
14:07 -0.3 °F -1.6 °F 1015.5 in North 1.4 mph 3.2 mph 91 % 0.0 in
14:13 -0.4 °F -1.7 °F 1015.5 in Calm   3.2 mph 91 % 0.0 in
14:19 -0.3 °F -1.6 °F 1015.1 in North 1.4 mph 3.2 mph 91 % 0.0 in
14:25 -0.3 °F -1.6 °F 1015.5 in North 1.4 mph 3.2 mph 91 % 0.0 in
14:31 -0.3 °F -1.6 °F 1015.5 in Calm   1.6 mph 91 % 0.0 in
14:37 -0.2 °F -1.5 °F 1015.5 in Calm   1.6 mph 91 % 0.0 in
14:43 -0.2 °F -1.5 °F 1015.5 in Calm   1.6 mph 91 % 0.0 in
14:49 -0.1 °F -1.4 °F 1015.5 in Calm     91 % 0.0 in
14:55 0.1 °F -1.2 °F 1015.5 in North 3.2 mph 4.8 mph 91 % 0.0 in
15:01 -0.1 °F -1.7 °F 1015.5 in Calm   3.2 mph 89 % 0.0 in
15:07 -0.2 °F -1.8 °F 1015.5 in North 3.2 mph 3.2 mph 89 % 0.0 in
15:13 -0.2 °F -1.6 °F 1015.8 in Calm   3.2 mph 90 % 0.0 in
15:19 -0.3 °F -1.7 °F 1015.5 in NNE 1.4 mph 1.6 mph 90 % 0.0 in
15:25 -0.3 °F -1.7 °F 1015.8 in Calm   1.6 mph 90 % 0.0 in
15:31 -0.2 °F -1.6 °F 1015.8 in NNE 1.4 mph 3.2 mph 90 % 0.0 in
15:37 -0.2 °F -1.6 °F 1015.8 in Calm   3.2 mph 90 % 0.0 in
15:43 -0.2 °F -1.6 °F 1015.8 in NNE 1.4 mph 4.8 mph 90 % 0.0 in
15:49 -0.3 °F -1.7 °F 1015.8 in NNE 1.4 mph 4.8 mph 90 % 0.0 in
15:55 -0.4 °F -1.8 °F 1015.8 in NNE 1.4 mph 4.8 mph 90 % 0.0 in
16:01 -0.4 °F -1.7 °F 1016.1 in NNE 1.4 mph 4.8 mph 91 % 0.0 in
16:07 -0.4 °F -1.7 °F 1016.1 in Calm   6.4 mph 91 % 0.0 in
16:13 -0.5 °F -1.6 °F 1016.1 in North 6.4 mph 8.0 mph 92 % 0.0 in
16:19 -0.7 °F -1.8 °F 1016.1 in North 1.4 mph 4.8 mph 92 % 0.0 in
16:25 -0.7 °F -1.7 °F 1016.1 in North 3.2 mph 4.8 mph 93 % 0.0 in
16:31 -0.7 °F -1.7 °F 1016.1 in Calm   3.2 mph 93 % 0.0 in
16:37 -0.8 °F -1.8 °F 1016.1 in Calm   4.8 mph 93 % 0.0 in
16:43 -0.8 °F -1.6 °F 1016.5 in North 1.4 mph 6.4 mph 94 % 0.0 in
16:49 -0.8 °F -1.6 °F 1016.5 in North 4.7 mph 6.4 mph 94 % 0.0 in
16:55 -0.8 °F -1.6 °F 1016.5 in North 1.4 mph 3.2 mph 94 % 0.0 in
17:01 -0.8 °F -1.6 °F 1016.5 in North 1.4 mph 3.2 mph 94 % 0.0 in
17:07 -0.8 °F -1.6 °F 1016.5 in Calm   3.2 mph 94 % 0.0 in
17:13 -0.9 °F -1.7 °F 1016.5 in Calm   3.2 mph 94 % 0.0 in
17:19 -1.0 °F -1.8 °F 1016.8 in Calm   3.2 mph 94 % 0.0 in
17:25 -1.1 °F -1.9 °F 1016.8 in Calm   3.2 mph 94 % 0.0 in
17:31 -1.1 °F -1.9 °F 1016.8 in North 1.4 mph 3.2 mph 94 % 0.0 in
17:37 -1.1 °F -1.8 °F 1016.8 in Calm   1.6 mph 95 % 0.0 in
17:43 -1.2 °F -1.9 °F 1016.8 in Calm   1.6 mph 95 % 0.0 in
17:49 -1.2 °F -1.9 °F 1016.8 in Calm   1.6 mph 95 % 0.0 in
17:55 -1.2 °F -1.9 °F 1017.2 in Calm   1.6 mph 95 % 0.0 in
18:01 -1.2 °F -1.9 °F 1017.2 in Calm   1.6 mph 95 % 0.0 in
18:07 -1.2 °F -1.9 °F 1017.2 in Calm   1.6 mph 95 % 0.0 in
18:13 -1.2 °F -1.9 °F 1017.2 in Calm   1.6 mph 95 % 0.0 in
18:20 -1.2 °F -1.9 °F 1017.2 in Calm   1.6 mph 95 % 0.0 in
18:26 -1.2 °F -1.8 °F 1017.2 in Calm     96 % 0.0 in
18:32 -1.2 °F -1.8 °F 1017.5 in Calm   1.6 mph 96 % 0.0 in
18:38 -1.2 °F -1.8 °F 1017.5 in Calm     96 % 0.0 in
18:44 -1.2 °F -1.8 °F 1017.5 in Calm     96 % 0.0 in
18:50 -1.2 °F -1.8 °F 1017.5 in Calm     96 % 0.0 in
18:56 -1.2 °F -1.8 °F 1017.5 in Calm     96 % 0.0 in
19:02 -1.3 °F -1.9 °F 1017.5 in Calm     96 % 0.0 in
19:04 -1.2 °F -1.8 °F 1017.5 in Calm     96 % 0.0 in
19:10 -1.3 °F -1.9 °F 1017.5 in Calm     96 % 0.0 in
19:16 -1.3 °F -1.9 °F 1017.5 in Calm     96 % 0.0 in
19:22 -1.3 °F -1.9 °F 1017.5 in Calm     96 % 0.0 in
19:28 -1.3 °F -1.9 °F 1017.8 in Calm     96 % 0.0 in
19:34 -1.3 °F -1.9 °F 1017.8 in Calm     96 % 0.0 in
19:40 -1.3 °F -1.9 °F 1017.8 in Calm     96 % 0.0 in
19:46 -1.3 °F -1.9 °F 1017.8 in Calm     96 % 0.0 in
19:52 -1.3 °F -1.9 °F 1017.8 in Calm     96 % 0.0 in
19:59 -1.3 °F -1.9 °F 1017.8 in Calm     96 % 0.0 in
20:05 -1.3 °F -1.9 °F 1017.8 in Calm   1.6 mph 96 % 0.0 in
20:11 -1.2 °F -1.8 °F 1018.2 in Calm   1.6 mph 96 % 0.0 in
20:17 -1.2 °F -1.8 °F 1018.2 in Calm     96 % 0.0 in
20:23 -1.2 °F -1.8 °F 1018.2 in Calm   1.6 mph 96 % 0.0 in
20:29 -1.1 °F -1.7 °F 1018.2 in Calm   1.6 mph 96 % 0.0 in
20:35 -1.1 °F -1.7 °F 1018.2 in Calm   1.6 mph 96 % 0.0 in
20:41 -1.1 °F -1.7 °F 1018.2 in Calm   1.6 mph 96 % 0.0 in
20:47 -1.0 °F -1.6 °F 1018.5 in North 1.4 mph 6.4 mph 96 % 0.0 in
20:53 -0.9 °F -1.5 °F 1018.5 in Calm   4.8 mph 96 % 0.0 in
20:59 -0.9 °F -1.5 °F 1018.5 in North 1.4 mph 4.8 mph 96 % 0.0 in
21:05 -0.9 °F -1.5 °F 1018.8 in North 4.7 mph 6.4 mph 96 % 0.0 in
21:11 -1.0 °F -1.7 °F 1018.8 in North 1.4 mph 8.0 mph 95 % 0.0 in
21:17 -1.0 °F -1.7 °F 1018.8 in North 1.4 mph 4.8 mph 95 % 0.0 in
21:23 -1.0 °F -1.7 °F 1018.8 in North 3.2 mph 6.4 mph 95 % 0.0 in
21:29 -1.1 °F -1.8 °F 1018.8 in North 4.7 mph 6.4 mph 95 % 0.0 in
21:35 -1.1 °F -1.8 °F 1018.8 in North 1.4 mph 6.4 mph 95 % 0.0 in
21:41 -1.1 °F -1.8 °F 1018.8 in Calm   3.2 mph 95 % 0.0 in
21:47 -1.1 °F -1.8 °F 1018.8 in North 1.4 mph 3.2 mph 95 % 0.0 in
21:53 -1.1 °F -1.8 °F 1018.8 in North 1.4 mph 3.2 mph 95 % 0.0 in
21:59 -1.2 °F -1.9 °F 1018.8 in North 3.2 mph 4.8 mph 95 % 0.0 in
22:05 -1.2 °F -1.9 °F 1018.8 in Calm   6.4 mph 95 % 0.0 in
22:11 -1.2 °F -1.9 °F 1018.8 in North 3.2 mph 3.2 mph 95 % 0.0 in
22:19 -1.2 °F -1.9 °F 1018.8 in Calm   4.8 mph 95 % 0.0 in
22:26 -1.3 °F -2.0 °F 1018.8 in Calm   4.8 mph 95 % 0.0 in
22:31 -1.3 °F -2.0 °F 1018.8 in Calm   4.8 mph 95 % 0.0 in
22:38 -1.3 °F -2.0 °F 1018.8 in Calm   4.8 mph 95 % 0.0 in
22:44 -1.3 °F -2.0 °F 1018.8 in North 3.2 mph 4.8 mph 95 % 0.0 in
22:50 -1.3 °F -2.0 °F 1018.8 in Calm   1.6 mph 95 % 0.0 in
22:56 -1.3 °F -2.0 °F 1018.8 in Calm   3.2 mph 95 % 0.0 in
23:02 -1.3 °F -2.0 °F 1018.8 in North 1.4 mph 3.2 mph 95 % 0.0 in
23:08 -1.3 °F -2.0 °F 1018.8 in Calm   4.8 mph 95 % 0.0 in
23:14 -1.4 °F -2.1 °F 1018.8 in North 4.7 mph 9.7 mph 95 % 0.0 in
23:20 -1.4 °F -2.1 °F 1018.8 in North 3.2 mph 8.0 mph 95 % 0.0 in
23:26 -1.4 °F -2.1 °F 1018.8 in Calm   6.4 mph 95 % 0.0 in
23:32 -1.4 °F -2.1 °F 1019.2 in North 3.2 mph 6.4 mph 95 % 0.0 in
23:38 -1.4 °F -2.1 °F 1019.2 in Calm   4.8 mph 95 % 0.0 in
23:44 -1.4 °F -2.1 °F 1019.2 in North 1.4 mph 4.8 mph 95 % 0.0 in
23:50 -1.4 °F -2.1 °F 1019.2 in Calm   3.2 mph 95 % 0.0 in
23:56 -1.5 °F -2.2 °F 1019.2 in North 1.4 mph 4.8 mph 95 % 0.0 in
Meteo18
Compliments of Weather Underground - 4 mb

Script developed by  Jim McMurry - jmcmurry@mwt.net Adapted for the template by  Wim van der Kuil - Leuven-Template.eu

You find our weather info also at:

European Weather Network

Weather Underground

Equipment we use:

Weather-station
Davis Vue

Weather-program
Meteobridge

Weather-server
Raspberry PI 2 B+

Provider
1 and 1

Davis Vue

Meteobridge

Raspberry PI 2 B+

1 and 1